createdAt,value
2019-04-29T00:01:45.746Z,46.80
2019-04-29T00:04:13.813Z,47.10
2019-04-29T00:06:42.196Z,46.80
2019-04-29T00:09:12.318Z,46.80
2019-04-29T00:11:40.794Z,47.10
2019-04-29T00:14:09.482Z,46.90
2019-04-29T00:16:48.305Z,47.20
2019-04-29T00:19:18.219Z,47.30
2019-04-29T00:21:46.291Z,47.30
2019-04-29T00:24:14.680Z,47.20
2019-04-29T00:26:42.745Z,47.30
2019-04-29T00:29:10.818Z,47.20
2019-04-29T00:31:39.192Z,47.40
2019-04-29T00:34:07.572Z,47.20
2019-04-29T00:36:37.457Z,47.10
2019-04-29T00:39:26.446Z,47.10
2019-04-29T00:41:56.156Z,47.50
2019-04-29T00:44:24.336Z,47.40
2019-04-29T00:46:52.511Z,47.60
2019-04-29T00:49:20.886Z,47.70
2019-04-29T00:51:49.023Z,47.40
2019-04-29T00:54:19.179Z,47.80
2019-04-29T00:56:47.253Z,47.90
2019-04-29T00:59:15.321Z,47.60
2019-04-29T01:01:58.555Z,47.80
2019-04-29T01:04:26.622Z,48.30
2019-04-29T01:06:54.896Z,48.10
2019-04-29T01:09:24.714Z,48.00
2019-04-29T01:11:52.990Z,48.10
2019-04-29T01:14:21.266Z,47.90
2019-04-29T01:16:49.642Z,48.20
2019-04-29T01:19:17.821Z,48.00
2019-04-29T01:21:45.993Z,48.50
2019-04-29T01:24:18.539Z,48.60
2019-04-29T01:26:47.458Z,48.80
2019-04-29T01:29:22.903Z,48.80
2019-04-29T01:31:51.281Z,48.90
2019-04-29T01:34:21.197Z,49.30
2019-04-29T01:36:49.375Z,49.50
2019-04-29T01:39:17.647Z,49.30
2019-04-29T01:41:50.636Z,49.30
2019-04-29T01:44:20.142Z,48.90
2019-04-29T01:46:48.621Z,49.40
2019-04-29T01:49:16.799Z,49.40
2019-04-29T01:51:45.076Z,49.20
2019-04-29T01:54:13.449Z,49.30
2019-04-29T01:56:41.627Z,49.40
2019-04-29T01:59:09.701Z,49.20
2019-04-29T02:01:37.977Z,49.20
2019-04-29T02:04:06.354Z,49.40
2019-04-29T02:06:34.730Z,49.70
2019-04-29T02:09:04.645Z,49.50
2019-04-29T02:11:32.821Z,49.60
2019-04-29T02:14:02.117Z,49.60
2019-04-29T02:16:30.395Z,49.50
2019-04-29T02:18:58.776Z,49.80
2019-04-29T02:21:27.153Z,49.70
2019-04-29T02:23:56.769Z,49.90
2019-04-29T02:26:25.138Z,50.00
2019-04-29T02:28:53.208Z,50.30
2019-04-29T02:31:41.707Z,50.20
2019-04-29T02:34:09.938Z,50.10
2019-04-29T02:36:38.871Z,50.40
2019-04-29T02:39:25.433Z,50.60
2019-04-29T02:41:55.349Z,50.50
2019-04-29T02:44:23.423Z,50.50
2019-04-29T02:46:51.801Z,50.50
2019-04-29T02:49:20.251Z,50.50
2019-04-29T02:51:50.401Z,50.60
2019-04-29T02:54:18.781Z,50.60
2019-04-29T02:56:48.695Z,50.20
2019-04-29T02:59:21.375Z,50.20
2019-04-29T03:02:06.649Z,51.00
2019-04-29T03:04:42.401Z,50.20
2019-04-29T03:07:10.476Z,50.20
2019-04-29T03:09:47.870Z,50.10
2019-04-29T03:12:15.839Z,50.30
2019-04-29T03:14:44.210Z,50.40
2019-04-29T03:17:12.285Z,50.50
2019-04-29T03:19:58.582Z,50.50
2019-04-29T03:22:26.555Z,50.10
2019-04-29T03:24:54.625Z,49.70
2019-04-29T03:27:23.922Z,49.40
2019-04-29T03:29:51.993Z,47.50
2019-04-29T03:32:20.374Z,46.30
2019-04-29T03:34:48.755Z,45.10
2019-04-29T03:37:16.821Z,44.80
2019-04-29T03:39:45.204Z,45.00
2019-04-29T03:42:13.279Z,45.50
2019-04-29T03:44:41.653Z,46.80
2019-04-29T03:47:09.728Z,47.50
2019-04-29T03:49:38.154Z,48.00
2019-04-29T03:52:06.483Z,48.10
2019-04-29T03:54:34.559Z,48.60
2019-04-29T03:57:02.935Z,48.70
2019-04-29T03:59:31.010Z,48.70
2019-04-29T04:02:18.846Z,49.40
2019-04-29T04:04:54.491Z,48.60
2019-04-29T04:07:36.386Z,49.20
2019-04-29T04:10:06.301Z,48.90
2019-04-29T04:12:34.679Z,48.50
2019-04-29T04:15:03.062Z,46.00
2019-04-29T04:17:32.976Z,43.60
2019-04-29T04:20:01.150Z,41.90
2019-04-29T04:22:33.653Z,41.00
2019-04-29T04:25:02.124Z,40.70
2019-04-29T04:27:30.484Z,41.30
2019-04-29T04:29:58.558Z,42.00
2019-04-29T04:32:26.628Z,41.50
2019-04-29T04:34:55.083Z,41.30
2019-04-29T04:37:23.386Z,41.30
2019-04-29T04:39:51.762Z,42.30
2019-04-29T04:42:19.836Z,43.40
2019-04-29T04:44:48.526Z,44.50
2019-04-29T04:47:17.820Z,45.00
2019-04-29T04:49:46.506Z,45.20
2019-04-29T04:52:14.885Z,46.00
2019-04-29T04:54:44.091Z,45.60
2019-04-29T04:57:12.569Z,45.20
2019-04-29T04:59:40.946Z,45.50
2019-04-29T05:02:28.369Z,46.10
2019-04-29T05:04:56.443Z,46.60
2019-04-29T05:07:24.819Z,45.70
2019-04-29T05:09:52.901Z,46.50
2019-04-29T05:12:21.271Z,46.80
2019-04-29T05:14:49.339Z,46.50
2019-04-29T05:17:17.719Z,46.40
2019-04-29T05:19:46.100Z,46.80
2019-04-29T05:22:20.558Z,46.60
2019-04-29T05:24:52.223Z,46.00
2019-04-29T05:27:32.362Z,45.50
2019-04-29T05:30:05.014Z,45.30
2019-04-29T05:32:36.088Z,46.50
2019-04-29T05:35:11.087Z,45.50
2019-04-29T05:37:44.074Z,45.90
2019-04-29T05:40:13.989Z,45.90
2019-04-29T05:42:48.309Z,45.80
2019-04-29T05:45:18.398Z,46.50
2019-04-29T05:47:52.336Z,45.40
2019-04-29T05:50:25.629Z,44.50
2019-04-29T05:52:59.438Z,42.40
2019-04-29T05:55:31.818Z,40.20
2019-04-29T05:58:11.869Z,38.50
2019-04-29T06:00:40.955Z,38.90
2019-04-29T06:03:10.563Z,37.80
2019-04-29T06:05:38.742Z,37.40
2019-04-29T06:08:10.087Z,38.40
2019-04-29T06:10:41.687Z,40.20
2019-04-29T06:13:07.764Z,40.50
2019-04-29T06:15:38.811Z,39.60
2019-04-29T06:18:07.290Z,41.50
2019-04-29T06:20:35.360Z,41.00
2019-04-29T06:23:03.738Z,41.50
2019-04-29T06:25:32.119Z,42.00
2019-04-29T06:28:02.496Z,42.20
2019-04-29T06:30:30.717Z,42.90
2019-04-29T06:32:59.097Z,42.60
2019-04-29T06:35:27.477Z,42.60
2019-04-29T06:37:55.856Z,42.50
2019-04-29T06:40:23.936Z,42.40
2019-04-29T06:42:53.367Z,41.70
2019-04-29T06:45:21.913Z,42.20
2019-04-29T06:47:49.984Z,41.50
2019-04-29T06:50:18.467Z,41.50
2019-04-29T06:52:46.747Z,41.30
2019-04-29T06:55:16.589Z,41.30
2019-04-29T06:57:44.732Z,41.70
2019-04-29T07:00:13.107Z,40.40
2019-04-29T07:02:41.183Z,40.60
2019-04-29T07:05:09.560Z,41.40
2019-04-29T07:07:37.937Z,41.10
2019-04-29T07:10:06.422Z,40.20
2019-04-29T07:12:34.394Z,39.80
2019-04-29T07:15:02.464Z,39.20
2019-04-29T07:17:30.841Z,39.70
2019-04-29T07:20:01.962Z,39.70
2019-04-29T07:22:31.036Z,39.90
2019-04-29T07:24:58.435Z,38.60
2019-04-29T07:27:26.811Z,38.10
2019-04-29T07:29:54.906Z,39.00
2019-04-29T07:32:23.072Z,38.00
2019-04-29T07:34:51.030Z,38.20
2019-04-29T07:37:19.101Z,38.70
2019-04-29T07:39:47.481Z,39.00
2019-04-29T07:42:15.857Z,38.00
2019-04-29T07:45:02.361Z,38.20
2019-04-29T07:47:31.144Z,38.00
2019-04-29T07:49:59.762Z,38.40
2019-04-29T07:52:50.014Z,38.10
2019-04-29T07:55:17.075Z,37.30
2019-04-29T07:57:47.708Z,36.50
2019-04-29T08:00:16.596Z,35.90
2019-04-29T08:02:45.280Z,35.90
2019-04-29T08:05:13.424Z,36.50
2019-04-29T08:07:41.429Z,35.80
2019-04-29T08:10:22.812Z,35.40
2019-04-29T08:12:40.501Z,35.00
2019-04-29T08:15:09.479Z,35.00
2019-04-29T08:17:40.266Z,34.40
2019-04-29T08:20:08.851Z,36.40
2019-04-29T08:22:37.539Z,35.70
2019-04-29T08:25:06.837Z,33.90
2019-04-29T08:27:40.710Z,33.10
2019-04-29T08:30:11.471Z,33.90
2019-04-29T08:32:38.137Z,32.30
2019-04-29T08:35:06.904Z,32.50
2019-04-29T08:37:34.877Z,31.20
2019-04-29T08:40:15.508Z,31.10
2019-04-29T08:42:41.400Z,31.90
2019-04-29T08:45:28.376Z,30.20
2019-04-29T08:47:56.861Z,31.40
2019-04-29T08:50:25.338Z,31.10
2019-04-29T08:52:53.718Z,30.20
2019-04-29T08:55:21.789Z,30.50
2019-04-29T08:57:50.167Z,30.70
2019-04-29T09:00:18.854Z,29.20
2019-04-29T09:02:47.796Z,29.70
2019-04-29T09:05:16.637Z,30.30
2019-04-29T09:07:44.912Z,30.50
2019-04-29T09:10:13.400Z,29.90
2019-04-29T09:12:41.366Z,30.50
2019-04-29T09:15:09.844Z,29.20
2019-04-29T09:17:37.814Z,29.50
2019-04-29T09:20:06.808Z,29.90
2019-04-29T09:22:36.720Z,29.00
2019-04-29T09:25:26.201Z,28.50
2019-04-29T09:27:56.415Z,28.00
2019-04-29T09:30:24.700Z,28.30
2019-04-29T09:32:52.969Z,28.30
2019-04-29T09:35:21.051Z,28.00
2019-04-29T09:37:49.322Z,27.60
2019-04-29T09:40:19.236Z,27.90
2019-04-29T09:42:58.033Z,27.70
2019-04-29T09:45:36.982Z,27.80
2019-04-29T09:48:05.363Z,27.20
2019-04-29T09:50:34.308Z,26.90
2019-04-29T09:53:03.347Z,27.90
2019-04-29T09:55:35.526Z,29.20
2019-04-29T09:58:01.338Z,27.20
2019-04-29T10:00:31.250Z,27.30
2019-04-29T10:03:02.968Z,27.50
2019-04-29T10:05:45.210Z,27.50
2019-04-29T10:08:13.590Z,27.00
2019-04-29T10:10:41.968Z,26.70
2019-04-29T10:13:10.040Z,26.40
2019-04-29T10:15:45.987Z,27.40
2019-04-29T10:18:18.778Z,26.70
2019-04-29T10:20:57.482Z,26.10
2019-04-29T10:23:25.776Z,25.50
2019-04-29T10:25:53.749Z,26.80
2019-04-29T10:28:21.820Z,25.80
2019-04-29T10:30:50.194Z,26.60
2019-04-29T10:33:19.423Z,25.80
2019-04-29T10:35:51.241Z,26.30
2019-04-29T10:38:18.105Z,26.50
2019-04-29T10:41:00.748Z,26.20
2019-04-29T10:43:38.509Z,26.10
2019-04-29T10:46:24.505Z,25.90
2019-04-29T10:48:59.041Z,25.50
2019-04-29T10:51:27.357Z,24.80
2019-04-29T10:53:57.216Z,25.80
2019-04-29T10:56:25.593Z,25.80
2019-04-29T10:58:53.972Z,26.50
2019-04-29T11:01:29.130Z,26.50
2019-04-29T11:03:55.931Z,25.60
2019-04-29T11:06:24.952Z,25.60
2019-04-29T11:08:54.863Z,25.40
2019-04-29T11:11:27.195Z,25.30
2019-04-29T11:13:57.658Z,25.50
2019-04-29T11:16:29.474Z,25.10
2019-04-29T11:18:55.157Z,25.50
2019-04-29T11:21:25.031Z,25.80
2019-04-29T11:23:56.504Z,24.60
2019-04-29T11:26:26.724Z,25.10
2019-04-29T11:28:55.926Z,24.80
2019-04-29T11:31:24.402Z,24.90
2019-04-29T11:34:11.625Z,25.60
2019-04-29T11:36:44.192Z,25.50
2019-04-29T11:39:13.818Z,24.10
2019-04-29T11:41:43.835Z,23.50
2019-04-29T11:44:11.805Z,24.10
2019-04-29T11:46:40.174Z,22.90
2019-04-29T11:49:10.313Z,23.10
2019-04-29T11:51:55.923Z,23.20
2019-04-29T11:54:12.763Z,23.90
2019-04-29T11:56:39.840Z,23.90
2019-04-29T11:59:16.637Z,23.40
2019-04-29T12:01:54.103Z,24.30
2019-04-29T12:04:35.999Z,23.80
2019-04-29T12:07:04.385Z,23.90
2019-04-29T12:09:33.269Z,24.10
2019-04-29T12:12:01.655Z,23.90
2019-04-29T12:14:38.050Z,24.10
2019-04-29T12:17:22.468Z,24.40
2019-04-29T12:19:55.147Z,24.20
2019-04-29T12:22:30.058Z,24.70
2019-04-29T12:24:54.363Z,23.30
2019-04-29T12:27:23.060Z,24.20
2019-04-29T12:29:54.349Z,24.00
2019-04-29T12:32:28.393Z,23.40
2019-04-29T12:35:04.063Z,24.50
2019-04-29T12:37:36.841Z,22.20
2019-04-29T12:40:14.607Z,27.20
2019-04-29T12:42:42.511Z,28.00
2019-04-29T12:45:19.308Z,27.80
2019-04-29T12:47:43.669Z,29.10
2019-04-29T12:50:11.845Z,29.60
2019-04-29T12:52:40.120Z,29.50
2019-04-29T12:55:20.168Z,30.40
2019-04-29T12:57:38.645Z,30.20
2019-04-29T13:00:09.173Z,30.00
2019-04-29T13:02:55.699Z,30.90
2019-04-29T13:05:33.124Z,30.80
2019-04-29T13:08:02.653Z,31.40
2019-04-29T13:10:42.531Z,31.50
2019-04-29T13:13:08.319Z,31.30
2019-04-29T13:15:47.859Z,31.80
2019-04-29T13:18:27.192Z,32.30
2019-04-29T13:21:09.189Z,32.70
2019-04-29T13:23:34.754Z,33.00
2019-04-29T13:25:57.747Z,33.70
2019-04-29T13:28:30.423Z,33.40
2019-04-29T13:30:56.978Z,33.10
2019-04-29T13:33:26.578Z,32.90
2019-04-29T13:35:54.751Z,33.60
2019-04-29T13:38:22.833Z,34.10
2019-04-29T13:40:51.100Z,34.70
2019-04-29T13:43:20.703Z,34.80
2019-04-29T13:46:06.907Z,34.50
2019-04-29T13:48:57.985Z,35.10
2019-04-29T13:51:35.984Z,35.10
2019-04-29T13:53:59.840Z,34.60
2019-04-29T13:56:34.996Z,33.60
2019-04-29T13:58:58.624Z,34.30
2019-04-29T14:01:58.462Z,35.20
2019-04-29T14:04:26.798Z,34.60
2019-04-29T14:06:56.938Z,33.90
2019-04-29T14:09:24.984Z,33.40
2019-04-29T14:12:01.903Z,33.70
2019-04-29T14:14:24.293Z,34.70
2019-04-29T14:17:08.316Z,34.90
2019-04-29T14:19:40.658Z,34.50
2019-04-29T14:21:51.802Z,33.90
2019-04-29T14:24:19.865Z,33.90
2019-04-29T14:26:48.242Z,34.50
2019-04-29T14:29:16.627Z,34.00
2019-04-29T14:31:46.337Z,34.20
2019-04-29T14:34:20.448Z,33.90
2019-04-29T14:36:55.643Z,33.90
2019-04-29T14:39:35.802Z,33.60
2019-04-29T14:45:25.627Z,34.10
2019-04-29T14:47:58.527Z,33.80
2019-04-29T14:50:26.906Z,33.50
2019-04-29T14:52:54.878Z,33.70
2019-04-29T14:55:25.183Z,33.80
2019-04-29T14:57:52.761Z,33.60
2019-04-29T15:00:22.622Z,33.80
2019-04-29T15:02:51.316Z,33.70
2019-04-29T15:05:20.013Z,32.90
2019-04-29T15:07:48.658Z,32.50
2019-04-29T15:10:16.758Z,32.50
2019-04-29T15:13:18.422Z,32.60
2019-04-29T15:15:37.041Z,32.90
2019-04-29T15:18:15.914Z,32.70
2019-04-29T15:20:47.806Z,33.90
2019-04-29T15:23:27.934Z,33.60
2019-04-29T15:25:45.989Z,33.80
2019-04-29T15:28:14.370Z,33.60
2019-04-29T15:30:42.751Z,33.70
2019-04-29T15:33:11.131Z,34.00
2019-04-29T15:35:39.627Z,33.70
2019-04-29T15:38:07.681Z,33.80
2019-04-29T15:40:42.709Z,33.10
2019-04-29T15:43:06.025Z,34.50
2019-04-29T15:45:40.310Z,34.60
2019-04-29T15:48:07.032Z,34.70
2019-04-29T15:50:37.286Z,35.00
2019-04-29T15:53:06.454Z,34.80
2019-04-29T15:55:38.938Z,35.60
2019-04-29T15:58:04.524Z,36.00
2019-04-29T16:00:38.165Z,36.70
2019-04-29T16:03:04.270Z,37.90
2019-04-29T16:05:54.283Z,38.60
2019-04-29T16:08:15.274Z,39.20
2019-04-29T16:11:01.662Z,40.00
2019-04-29T16:13:29.846Z,39.90
2019-04-29T16:15:59.242Z,41.30
2019-04-29T16:18:27.416Z,42.30
2019-04-29T16:20:55.793Z,43.00
2019-04-29T16:23:24.171Z,42.80
2019-04-29T16:25:54.379Z,43.40
2019-04-29T16:28:24.478Z,44.30
2019-04-29T16:30:51.975Z,44.80
2019-04-29T16:33:20.253Z,45.80
2019-04-29T16:35:48.525Z,46.80
2019-04-29T16:38:17.720Z,47.40
2019-04-29T16:40:47.739Z,47.40
2019-04-29T16:43:34.243Z,47.30
2019-04-29T16:46:24.344Z,48.40
2019-04-29T16:48:48.824Z,48.00
2019-04-29T16:51:16.932Z,49.00
2019-04-29T16:53:47.045Z,49.20
2019-04-29T16:56:16.339Z,49.70
2019-04-29T16:58:45.098Z,50.20
2019-04-29T17:01:13.692Z,50.60
2019-04-29T17:03:47.082Z,51.10
2019-04-29T17:06:15.458Z,51.10
2019-04-29T17:11:32.559Z,52.20
2019-04-29T17:14:03.500Z,52.20
2019-04-29T17:16:32.777Z,52.80
2019-04-29T17:19:05.003Z,53.40
2019-04-29T17:21:33.177Z,53.90
2019-04-29T17:24:01.153Z,54.00
2019-04-29T17:26:33.823Z,54.40
2019-04-29T17:32:04.245Z,55.60
2019-04-29T17:34:56.424Z,56.20
2019-04-29T17:35:14.703Z,54.90
2019-04-29T17:35:16.117Z,52.20
2019-04-29T17:37:06.660Z,56.60
2019-04-29T17:39:35.041Z,57.10
2019-04-29T17:42:03.419Z,57.60
2019-04-29T17:44:33.336Z,58.30
2019-04-29T17:47:07.122Z,58.60
2019-04-29T17:49:38.398Z,59.00
2019-04-29T17:52:08.917Z,59.30
2019-04-29T17:54:41.699Z,59.90
2019-04-29T17:57:28.177Z,60.20
2019-04-29T17:59:52.179Z,60.80
2019-04-29T18:02:38.373Z,61.10
2019-04-29T18:05:28.123Z,61.60
2019-04-29T18:07:59.993Z,62.30
2019-04-29T18:10:29.741Z,62.60
2019-04-29T18:12:58.020Z,63.10
2019-04-29T18:15:40.203Z,63.80
2019-04-29T18:18:00.288Z,64.30
2019-04-29T18:20:39.112Z,65.00
2019-04-29T18:23:24.697Z,65.30
2019-04-29T18:25:57.786Z,65.60
2019-04-29T18:28:26.264Z,65.80
2019-04-29T18:30:57.738Z,66.20
2019-04-29T18:33:29.893Z,66.30
2019-04-29T18:36:03.373Z,66.70
2019-04-29T18:38:26.264Z,67.10
2019-04-29T18:40:55.983Z,67.50
2019-04-29T18:43:26.518Z,67.40
2019-04-29T18:45:58.364Z,68.00
2019-04-29T18:48:26.848Z,67.90
2019-04-29T18:50:56.839Z,68.00
2019-04-29T18:53:25.505Z,68.10
2019-04-29T18:55:55.046Z,68.90
2019-04-29T18:58:24.805Z,69.20
2019-04-29T19:00:56.078Z,69.50
2019-04-29T19:03:25.267Z,70.40
2019-04-29T19:05:58.264Z,70.20
2019-04-29T19:08:28.683Z,70.00
2019-04-29T19:10:55.854Z,69.80
2019-04-29T19:13:25.922Z,69.80
2019-04-29T19:15:58.797Z,69.40
2019-04-29T19:18:25.412Z,69.40
2019-04-29T19:20:54.197Z,69.40
2019-04-29T19:23:24.938Z,69.80
2019-04-29T19:25:53.183Z,69.40
2019-04-29T19:28:29.770Z,69.00
2019-04-29T19:30:55.556Z,69.10
2019-04-29T19:33:21.087Z,68.90
2019-04-29T19:35:49.223Z,68.90
2019-04-29T19:38:17.536Z,69.00
2019-04-29T19:40:45.912Z,68.60
2019-04-29T19:43:15.334Z,68.60
2019-04-29T19:45:50.522Z,67.70
2019-04-29T19:51:14.722Z,66.70
2019-04-29T19:53:37.798Z,66.80
2019-04-29T19:56:06.655Z,65.50
2019-04-29T19:58:34.128Z,64.50
2019-04-29T20:01:11.753Z,63.80
2019-04-29T20:03:37.353Z,62.70
2019-04-29T20:06:24.322Z,62.00
2019-04-29T20:08:54.025Z,60.70
2019-04-29T20:11:18.310Z,59.10
2019-04-29T20:14:01.230Z,58.20
2019-04-29T20:16:40.508Z,56.60
2019-04-29T20:19:17.971Z,55.70
2019-04-29T20:21:46.014Z,54.30
2019-04-29T20:24:17.081Z,53.10
2019-04-29T20:26:46.902Z,52.60
2019-04-29T20:29:16.705Z,51.70
2019-04-29T20:31:51.608Z,50.80
2019-04-29T20:34:20.333Z,50.20
2019-04-29T20:36:45.735Z,49.30
2019-04-29T20:39:17.005Z,48.30
2019-04-29T20:41:47.068Z,48.20
2019-04-29T20:44:16.235Z,47.70
2019-04-29T20:47:06.361Z,47.30
2019-04-29T20:49:15.951Z,47.00
2019-04-29T20:51:49.699Z,46.30
2019-04-29T20:54:19.396Z,45.30
2019-04-29T20:56:48.337Z,45.40
2019-04-29T20:59:16.622Z,45.00
2019-04-29T21:01:46.727Z,44.80
2019-04-29T21:04:30.479Z,44.40
2019-04-29T21:06:58.960Z,44.30
2019-04-29T21:09:16.752Z,44.40
2019-04-29T21:12:09.247Z,44.70
2019-04-29T21:14:50.677Z,44.90
2019-04-29T21:17:30.711Z,44.80
2019-04-29T21:19:53.388Z,44.50
2019-04-29T21:22:23.585Z,44.80
2019-04-29T21:24:53.873Z,45.00
2019-04-29T21:27:22.627Z,44.80
2019-04-29T21:29:54.046Z,45.20
2019-04-29T21:32:20.783Z,45.60
2019-04-29T21:34:50.668Z,45.30
2019-04-29T21:37:20.411Z,45.30
2019-04-29T21:39:56.057Z,45.00
2019-04-29T21:42:35.790Z,45.00
2019-04-29T21:45:03.594Z,45.40
2019-04-29T21:47:42.699Z,45.00
2019-04-29T21:50:05.070Z,44.70
2019-04-29T21:52:34.541Z,45.00
2019-04-29T21:55:05.484Z,45.10
2019-04-29T21:57:33.755Z,45.00
2019-04-29T22:00:05.776Z,45.50
2019-04-29T22:02:35.818Z,45.30
2019-04-29T22:05:12.441Z,45.00
2019-04-29T22:07:39.715Z,44.80
2019-04-29T22:10:07.230Z,45.00
2019-04-29T22:12:35.702Z,44.70
2019-04-29T22:15:05.906Z,44.50
2019-04-29T22:17:36.013Z,44.00
2019-04-29T22:20:07.827Z,44.70
2019-04-29T22:22:36.666Z,44.40
2019-04-29T22:25:09.764Z,44.40
2019-04-29T22:27:39.306Z,44.40
2019-04-29T22:30:14.567Z,44.70
2019-04-29T22:32:40.652Z,45.10
2019-04-29T22:35:09.138Z,45.00
2019-04-29T22:37:38.390Z,44.90
2019-04-29T22:40:07.536Z,45.20
2019-04-29T22:42:37.478Z,44.80
2019-04-29T22:45:08.797Z,45.00
2019-04-29T22:47:38.197Z,45.40
2019-04-29T22:50:06.577Z,45.70
2019-04-29T22:52:36.713Z,45.80
2019-04-29T22:55:06.305Z,46.40
2019-04-29T22:57:34.587Z,46.60
2019-04-29T23:00:05.135Z,46.60
2019-04-29T23:02:32.771Z,46.50
2019-04-29T23:05:01.154Z,46.70
2019-04-29T23:07:29.530Z,47.00
2019-04-29T23:09:57.909Z,47.40
2019-04-29T23:12:25.982Z,47.40
2019-04-29T23:14:54.358Z,47.60
2019-04-29T23:17:22.739Z,48.00
2019-04-29T23:19:52.653Z,48.10
2019-04-29T23:22:26.298Z,48.20
2019-04-29T23:25:02.620Z,48.50
2019-04-29T23:27:31.000Z,48.60
2019-04-29T23:29:59.377Z,49.00
2019-04-29T23:32:27.757Z,49.30
2019-04-29T23:34:57.252Z,49.60
2019-04-29T23:37:27.612Z,49.80
2019-04-29T23:39:55.785Z,50.20
2019-04-29T23:42:25.978Z,50.70
2019-04-29T23:44:55.087Z,51.00
2019-04-29T23:47:25.756Z,51.10
2019-04-29T23:49:56.125Z,51.10
2019-04-29T23:52:24.210Z,51.40
2019-04-29T23:54:52.691Z,51.70
2019-04-29T23:57:28.441Z,51.60
